EHBK/MST METAR and TAF weather

Enter ICAO airport designator
Station Type Date Time Source
EHBK METAR 2020/08/15 16:25 UTC NOAA

EHBK 151625Z AUTO 08009KT 050V110 9999 NSC 24/18 Q1014 NOSIG


Station Type Date Time Source
EHBK Decoded METAR 2020/08/15 16:25 UTC NOAA

Maastricht Airport Zuid Limburg, Netherlands (EHBK) 50-55N 005-47E 116M
Aug 15, 2020 - 12:25 PM EDT / 2020.08.15 1625 UTC
Wind: from the E (080 degrees) at 10 MPH (9 KT) (direction variable):0
Visibility: greater than 7 mile(s):0
Temperature: 75 F (24 C)
Dew Point: 64 F (18 C)
Relative Humidity: 69%
Pressure (altimeter): 29.94 in. Hg (1014 hPa)
ob: EHBK 151625Z AUTO 08009KT 050V110 9999 NSC 24/18 Q1014 NOSIG
cycle: 16

Station Type Date Time Source
EHBK TAF 2020/08/15 12:27 UTC NOAA

TAF COR EHBK 151116Z 1512/1618 26005KT 9999 SCT030 PROB30
TEMPO 1512/1518 VRB10G20KT 4000 SHRA TSRA FEW030CB PROB30 1600/1608 6000
TEMPO 1612/1618 4000 SHRA TSRA SCT035CB PROB40
TEMPO 1613/1618 VRB15G28KT 2500 +TSRAGR BKN030CB

Example: see airport list